Time;durP1;ratioP1;P1;durP2;ratioP2;P2;SDS_P1;SDS_P2;PMS_P1;PMS_P2;Temp;Humidity;BMP_temperature;BMP_pressure;BME280_temperature;BME280_humidity;BME280_pressure;Samples;Min_cycle;Max_cycle;Signal;HPM_P1;HPM_P2
2022/11/21 00:00:04;;;;;;;18.23;4.13;;;;;;;6.69;100.00;98035.31;6245657;22;20392;-84
2022/11/21 00:02:30;;;;;;;18.08;3.72;;;;;;;6.65;100.00;98034.06;6247234;22;20038;-84
2022/11/21 00:04:55;;;;;;;15.63;4.00;;;;;;;6.31;100.00;98022.66;6274511;22;20007;-83
2022/11/21 00:07:22;;;;;;;9.70;3.20;;;;;;;6.60;100.00;98023.41;6274251;22;20061;-83
2022/11/21 00:09:47;;;;;;;14.75;4.13;;;;;;;6.57;100.00;98021.19;6246966;22;20087;-83
2022/11/21 00:12:15;;;;;;;12.18;3.85;;;;;;;6.53;100.00;98028.59;6247409;22;20401;-84
2022/11/21 00:14:40;;;;;;;12.65;4.00;;;;;;;6.53;100.00;98022.59;6274161;22;20096;-85
2022/11/21 00:17:06;;;;;;;17.83;4.05;;;;;;;6.56;100.00;98017.75;6245662;22;20094;-83
2022/11/21 00:19:32;;;;;;;19.05;3.70;;;;;;;6.70;100.00;98013.44;6274352;22;20434;-83
2022/11/21 00:21:57;;;;;;;13.52;3.50;;;;;;;6.68;100.00;98002.41;6272594;22;20446;-82
2022/11/21 00:24:23;;;;;;;15.07;3.20;;;;;;;6.62;100.00;97990.13;6273910;22;20026;-82
2022/11/21 00:26:49;;;;;;;7.57;3.50;;;;;;;6.53;100.00;97975.66;6274311;22;20030;-83
2022/11/21 00:29:15;;;;;;;15.55;3.78;;;;;;;6.60;100.00;97984.28;6274229;22;20443;-84
2022/11/21 00:31:41;;;;;;;19.85;5.13;;;;;;;6.38;100.00;97981.81;6247719;22;20095;-84
2022/11/21 00:34:08;;;;;;;18.83;3.85;;;;;;;6.69;100.00;97970.09;6247674;22;20083;-82
2022/11/21 00:36:34;;;;;;;13.15;3.97;;;;;;;6.64;100.00;97974.28;6275746;22;20008;-83
2022/11/21 00:39:00;;;;;;;12.40;4.38;;;;;;;6.74;100.00;97972.09;6276258;22;20095;-83
2022/11/21 00:41:26;;;;;;;10.85;3.15;;;;;;;6.70;100.00;97976.94;6275863;22;20008;-83
2022/11/21 00:43:52;;;;;;;15.70;3.45;;;;;;;6.60;100.00;97967.88;6247443;22;20425;-85
2022/11/21 00:46:23;;;;;;;14.65;3.28;;;;;;;6.63;100.00;97980.50;6275933;22;20039;-83
2022/11/21 00:48:51;;;;;;;11.35;3.30;;;;;;;6.56;100.00;97968.22;6250537;22;20091;-85
2022/11/21 00:51:17;;;;;;;27.00;3.30;;;;;;;6.59;100.00;97961.84;6249423;22;20065;-85
2022/11/21 00:53:43;;;;;;;13.77;3.58;;;;;;;6.40;100.00;97974.59;6249523;22;20024;-84
2022/11/21 00:56:09;;;;;;;13.60;3.05;;;;;;;6.45;100.00;97976.63;6277041;22;20034;-84
2022/11/21 00:58:35;;;;;;;15.18;3.08;;;;;;;6.73;100.00;97973.09;6276814;22;20011;-84
2022/11/21 01:01:02;;;;;;;12.02;2.75;;;;;;;6.84;100.00;97963.91;6275874;22;20156;-84
2022/11/21 01:03:28;;;;;;;17.63;3.35;;;;;;;6.70;100.00;97968.28;6275985;22;20062;-84
2022/11/21 01:05:59;;;;;;;16.15;2.72;;;;;;;6.62;100.00;97964.03;6249814;22;20008;-85
2022/11/21 01:08:25;;;;;;;13.30;3.42;;;;;;;6.60;100.00;97955.63;6249670;22;20008;-85
2022/11/21 01:10:50;;;;;;;22.52;4.63;;;;;;;6.76;100.00;97949.22;6276526;22;20015;-84
2022/11/21 01:13:16;;;;;;;11.57;3.35;;;;;;;6.87;100.00;97950.47;6276143;22;20350;-83
2022/11/21 01:15:43;;;;;;;15.38;3.38;;;;;;;6.89;100.00;97958.09;6249572;22;20331;-84
2022/11/21 01:18:09;;;;;;;9.13;3.03;;;;;;;6.93;100.00;97946.28;6276214;22;20061;-84
2022/11/21 01:20:38;;;;;;;12.18;3.05;;;;;;;6.90;100.00;97931.84;6276406;22;20430;-86
2022/11/21 01:23:04;;;;;;;14.95;3.38;;;;;;;6.82;100.00;97926.78;6276519;22;20019;-85
2022/11/21 01:25:33;;;;;;;8.55;2.28;;;;;;;6.70;100.00;97924.78;6249348;22;20015;-85
2022/11/21 01:27:58;;;;;;;12.70;2.55;;;;;;;6.64;100.00;97941.19;6249832;22;20011;-85
2022/11/21 01:30:24;;;;;;;15.05;2.85;;;;;;;6.57;100.00;97929.94;6275880;22;20018;-84
2022/11/21 01:32:51;;;;;;;8.57;2.83;;;;;;;6.52;100.00;97945.38;6276021;22;20316;-84
2022/11/21 01:35:17;;;;;;;7.25;2.72;;;;;;;6.41;100.00;97946.72;6276502;22;20011;-85
2022/11/21 01:37:46;;;;;;;9.18;2.42;;;;;;;6.28;100.00;97947.44;6249188;22;20011;-84
2022/11/21 01:40:12;;;;;;;19.58;3.95;;;;;;;6.19;100.00;97944.22;6248812;22;20011;-84
2022/11/21 01:43:00;;;;;;;11.68;3.47;;;;;;;6.17;100.00;97948.03;6276202;22;20012;-85
2022/11/21 01:45:51;;;;;;;9.00;3.38;;;;;;;6.07;100.00;97949.16;6275782;22;20446;-83
2022/11/21 01:48:18;;;;;;;8.70;3.03;;;;;;;5.88;100.00;97934.19;6275064;22;20134;-83
2022/11/21 01:50:44;;;;;;;8.57;2.90;;;;;;;5.84;100.00;97933.78;6275982;22;20061;-84
2022/11/21 01:53:10;;;;;;;9.32;2.53;;;;;;;5.82;100.00;97939.16;6275728;22;20102;-84
2022/11/21 01:55:36;;;;;;;9.93;3.30;;;;;;;5.95;100.00;97942.88;6275917;22;20089;-85
2022/11/21 01:58:04;;;;;;;10.23;3.03;;;;;;;6.08;100.00;97953.38;6275663;22;20012;-86
2022/11/21 02:00:38;;;;;;;13.30;2.90;;;;;;;5.97;100.00;97949.47;6249123;22;20018;-84
2022/11/21 02:03:14;;;;;;;10.70;2.72;;;;;;;5.90;100.00;97942.63;6250158;22;20098;-84
2022/11/21 02:05:42;;;;;;;15.88;3.03;;;;;;;5.77;100.00;97938.13;6276389;22;20012;-86
2022/11/21 02:08:18;;;;;;;13.75;4.18;;;;;;;5.84;100.00;97931.97;6250683;22;20349;-85
2022/11/21 02:10:55;;;;;;;17.10;4.20;;;;;;;5.82;100.00;97933.19;6275533;22;20007;-85
2022/11/21 02:13:21;;;;;;;16.45;3.38;;;;;;;5.76;100.00;97918.28;6275630;22;20342;-83
2022/11/21 02:15:47;;;;;;;13.10;3.35;;;;;;;5.74;100.00;97915.91;6274804;22;20018;-85
2022/11/21 02:18:13;;;;;;;20.58;4.05;;;;;;;5.68;100.00;97909.66;6275220;22;20016;-85
2022/11/21 02:20:42;;;;;;;8.50;2.65;;;;;;;5.73;100.00;97898.66;6248920;22;20133;-84
2022/11/21 02:23:22;;;;;;;12.50;2.50;;;;;;;5.83;100.00;97896.50;6275068;22;20016;-84
2022/11/21 02:25:49;;;;;;;9.50;3.22;;;;;;;5.81;100.00;97888.09;6275771;22;20053;-83
2022/11/21 02:28:19;;;;;;;16.63;3.85;;;;;;;5.85;100.00;97891.13;6222941;22;20011;-83
2022/11/21 02:30:45;;;;;;;12.40;3.20;;;;;;;5.81;100.00;97885.47;6275274;22;20011;-85
2022/11/21 02:33:12;;;;;;;19.20;3.72;;;;;;;5.77;100.00;97878.25;6274936;22;20089;-85
2022/11/21 02:35:38;;;;;;;13.25;3.05;;;;;;;5.88;100.00;97879.50;6275479;22;20008;-84
2022/11/21 02:38:17;;;;;;;14.15;3.70;;;;;;;6.07;100.00;97878.03;6273600;22;20008;-84
2022/11/21 02:40:57;;;;;;;13.00;3.17;;;;;;;6.00;100.00;97872.75;6248066;22;20034;-84
2022/11/21 02:43:38;;;;;;;18.25;2.80;;;;;;;6.02;100.00;97876.00;6275178;22;20012;-84
2022/11/21 02:46:04;;;;;;;14.80;2.55;;;;;;;5.99;100.00;97871.16;6274791;22;20007;-85
2022/11/21 02:48:30;;;;;;;11.40;2.88;;;;;;;5.95;100.00;97875.16;6275589;22;20319;-84
2022/11/21 02:50:55;;;;;;;18.23;3.72;;;;;;;6.05;100.00;97864.41;6275371;22;20095;-83
2022/11/21 02:53:21;;;;;;;10.07;2.90;;;;;;;5.92;100.00;97862.50;6275604;22;20107;-85
2022/11/21 02:55:47;;;;;;;14.50;2.92;;;;;;;6.01;100.00;97863.97;6248073;22;20347;-85
2022/11/21 02:58:12;;;;;;;23.25;3.45;;;;;;;6.13;100.00;97857.22;6275139;22;20066;-85
2022/11/21 03:00:40;;;;;;;14.85;2.80;;;;;;;6.14;100.00;97864.03;6274600;22;20003;-84
2022/11/21 03:03:07;;;;;;;13.38;3.22;;;;;;;6.03;100.00;97861.97;6275058;22;20390;-83
2022/11/21 03:05:33;;;;;;;15.55;3.30;;;;;;;6.22;100.00;97859.63;6275248;22;20483;-85
2022/11/21 03:07:58;;;;;;;11.20;3.00;;;;;;;6.17;100.00;97846.41;6274608;22;20012;-84
2022/11/21 03:10:24;;;;;;;17.05;3.25;;;;;;;6.14;100.00;97837.97;6247791;22;20059;-84
2022/11/21 03:12:59;;;;;;;11.73;2.92;;;;;;;6.19;100.00;97831.38;6248271;22;20016;-84
2022/11/21 03:15:27;;;;;;;11.35;2.75;;;;;;;6.25;100.00;97817.56;6274605;22;20126;-83
2022/11/21 03:17:54;;;;;;;13.77;2.90;;;;;;;6.14;100.00;97809.31;6248406;22;20015;-85
2022/11/21 03:20:21;;;;;;;8.85;2.97;;;;;;;6.14;100.00;97809.31;6275128;22;20058;-85
2022/11/21 03:22:46;;;;;;;12.52;3.38;;;;;;;6.12;100.00;97797.47;6274622;22;20012;-83
2022/11/21 03:25:12;;;;;;;12.50;4.35;;;;;;;6.05;100.00;97789.63;6274662;22;20019;-83
2022/11/21 03:27:38;;;;;;;11.60;2.97;;;;;;;6.05;100.00;97781.81;6275036;22;20008;-84
2022/11/21 03:30:04;;;;;;;8.32;2.80;;;;;;;6.09;100.00;97779.63;6274514;22;20457;-83
2022/11/21 03:32:30;;;;;;;13.80;3.67;;;;;;;6.16;100.00;97779.66;6247746;22;20023;-85
2022/11/21 03:34:55;;;;;;;16.63;2.80;;;;;;;6.12;100.00;97772.25;6247855;22;20073;-84
2022/11/21 03:37:21;;;;;;;11.57;2.70;;;;;;;5.95;100.00;97770.97;6275294;22;20011;-84
2022/11/21 03:39:46;;;;;;;8.50;3.08;;;;;;;6.11;100.00;97770.63;6274943;22;20083;-84
2022/11/21 03:42:12;;;;;;;16.92;2.80;;;;;;;6.14;100.00;97754.59;6274894;22;20019;-84
2022/11/21 03:44:38;;;;;;;10.65;3.20;;;;;;;6.18;100.00;97749.00;6274706;22;20015;-83
2022/11/21 03:47:04;;;;;;;13.35;3.38;;;;;;;6.16;100.00;97749.19;6274937;22;20008;-84
2022/11/21 03:49:29;;;;;;;17.55;4.70;;;;;;;6.15;100.00;97765.81;6275079;22;20011;-83
2022/11/21 03:51:55;;;;;;;14.07;2.60;;;;;;;6.13;100.00;97755.59;6275101;22;20061;-83
2022/11/21 03:54:20;;;;;;;10.82;2.47;;;;;;;6.03;100.00;97743.97;6248301;22;20026;-84
2022/11/21 03:56:46;;;;;;;17.02;2.85;;;;;;;6.18;100.00;97734.16;6274724;22;20320;-83
2022/11/21 03:59:12;;;;;;;6.95;2.38;;;;;;;6.20;100.00;97726.97;6274185;22;20323;-84
2022/11/21 04:01:37;;;;;;;14.88;2.90;;;;;;;6.17;100.00;97719.53;6247739;22;20042;-83
2022/11/21 04:04:04;;;;;;;9.63;2.22;;;;;;;6.17;100.00;97713.53;6275203;22;20007;-84
2022/11/21 04:06:32;;;;;;;10.73;2.30;;;;;;;6.16;100.00;97698.91;6274593;22;20038;-84
2022/11/21 04:08:57;;;;;;;16.23;2.80;;;;;;;6.10;100.00;97692.66;6275151;22;20012;-84
2022/11/21 04:11:23;;;;;;;10.93;2.05;;;;;;;6.09;100.00;97691.88;6223750;22;20047;-84
2022/11/21 04:13:50;;;;;;;12.40;2.90;;;;;;;6.19;100.00;97688.06;6249852;22;20091;-84
2022/11/21 04:16:16;;;;;;;6.78;2.05;;;;;;;6.05;100.00;97672.41;6276976;22;20090;-85
2022/11/21 04:18:41;;;;;;;5.93;2.42;;;;;;;5.97;100.00;97675.19;6250414;22;20038;-84
2022/11/21 04:21:08;;;;;;;6.78;2.40;;;;;;;5.85;100.00;97683.56;6277618;22;20514;-85
2022/11/21 04:23:33;;;;;;;12.85;2.75;;;;;;;5.71;100.00;97661.91;6277132;22;20102;-85
2022/11/21 04:25:59;;;;;;;11.27;3.08;;;;;;;5.62;100.00;97659.69;6277235;22;20015;-85
2022/11/21 04:28:26;;;;;;;5.13;2.72;;;;;;;5.59;100.00;97658.28;6276464;22;20018;-85
2022/11/21 04:30:52;;;;;;;8.73;2.75;;;;;;;5.51;100.00;97656.69;6277102;22;20015;-85
2022/11/21 04:33:18;;;;;;;6.93;1.85;;;;;;;5.47;100.00;97660.66;6224756;22;20420;-84
2022/11/21 04:35:45;;;;;;;9.10;2.30;;;;;;;5.47;100.00;97658.03;6276982;22;20012;-84
2022/11/21 04:38:23;;;;;;;8.00;2.58;;;;;;;5.41;100.00;97661.44;6249835;22;20015;-86
2022/11/21 04:40:49;;;;;;;9.50;2.35;;;;;;;5.36;100.00;97667.22;6249843;22;20004;-84
2022/11/21 04:43:14;;;;;;;12.38;3.20;;;;;;;5.34;100.00;97651.00;6277071;22;20011;-86
2022/11/21 04:45:40;;;;;;;14.63;4.22;;;;;;;5.34;100.00;97645.00;6276795;22;20015;-84
2022/11/21 04:48:06;;;;;;;8.90;2.92;;;;;;;5.34;100.00;97645.00;6277227;22;20008;-84
2022/11/21 04:50:32;;;;;;;14.10;3.00;;;;;;;5.28;100.00;97636.97;6250156;22;20019;-85
2022/11/21 04:52:57;;;;;;;14.88;3.17;;;;;;;5.23;100.00;97634.16;6277080;22;20018;-84
2022/11/21 04:55:27;;;;;;;15.38;3.22;;;;;;;5.28;100.00;97636.97;6276373;22;20008;-83
2022/11/21 04:57:53;;;;;;;16.63;3.30;;;;;;;5.33;100.00;97623.38;6249419;22;20445;-84
2022/11/21 05:00:19;;;;;;;14.38;3.17;;;;;;;5.44;100.00;97627.22;6276926;22;20011;-85
2022/11/21 05:02:44;;;;;;;19.88;4.93;;;;;;;5.38;100.00;97615.78;6276291;22;20081;-84
2022/11/21 05:05:10;;;;;;;17.67;3.25;;;;;;;5.51;100.00;97620.25;6249328;22;20304;-84
2022/11/21 05:07:36;;;;;;;15.70;3.15;;;;;;;5.54;100.00;97609.44;6276619;22;20007;-85
2022/11/21 05:10:03;;;;;;;12.90;2.70;;;;;;;5.48;100.00;97602.38;6275721;22;20011;-85
2022/11/21 05:15:15;;;;;;;13.65;2.85;;;;;;;5.44;100.00;97606.38;6276588;22;20022;-85
2022/11/21 05:17:40;;;;;;;14.38;2.40;;;;;;;5.53;100.00;97602.63;6277040;22;20435;-85
2022/11/21 05:20:06;;;;;;;11.07;2.08;;;;;;;5.57;100.00;97603.81;6250160;22;20008;-84
2022/11/21 05:22:32;;;;;;;7.10;2.63;;;;;;;5.53;100.00;97596.59;6276356;22;20338;-85
2022/11/21 05:24:57;;;;;;;14.25;2.55;;;;;;;5.54;100.00;97588.59;6276501;22;20008;-86
2022/11/21 05:27:23;;;;;;;16.15;2.78;;;;;;;5.53;100.00;97579.19;6276617;22;20102;-85
2022/11/21 05:29:48;;;;;;;13.05;2.90;;;;;;;5.43;100.00;97569.16;6276994;22;20008;-85
2022/11/21 05:32:14;;;;;;;9.65;2.33;;;;;;;5.44;100.00;97567.34;6249577;22;20019;-84
2022/11/21 05:34:39;;;;;;;10.57;2.53;;;;;;;5.43;100.00;97563.97;6276126;22;20015;-84
2022/11/21 05:37:05;;;;;;;9.75;2.85;;;;;;;5.42;100.00;97564.16;6276624;22;20337;-85
2022/11/21 05:39:30;;;;;;;13.60;3.88;;;;;;;5.41;100.00;97557.34;6276094;22;20014;-84
2022/11/21 05:41:56;;;;;;;14.23;3.85;;;;;;;5.39;100.00;97543.72;6276441;22;20098;-85
2022/11/21 05:44:21;;;;;;;11.90;4.88;;;;;;;5.45;100.00;97535.13;6249536;22;20054;-85
2022/11/21 05:46:47;;;;;;;9.88;3.88;;;;;;;5.48;100.00;97532.13;6275698;22;20007;-84
2022/11/21 05:49:12;;;;;;;9.40;3.10;;;;;;;5.54;100.00;97530.53;6276299;22;20345;-85
2022/11/21 05:51:38;;;;;;;12.88;3.03;;;;;;;5.57;100.00;97519.72;6276332;22;20017;-85
2022/11/21 05:54:04;;;;;;;10.85;3.28;;;;;;;5.63;100.00;97513.72;6275562;22;20015;-84
2022/11/21 05:56:30;;;;;;;12.50;2.70;;;;;;;5.67;100.00;97522.75;6276129;22;20011;-84
2022/11/21 05:58:57;;;;;;;6.93;2.40;;;;;;;5.69;100.00;97510.31;6249294;22;20031;-86
2022/11/21 06:04:08;;;;;;;7.28;2.05;;;;;;;5.58;100.00;97488.28;6276461;22;20004;-85
2022/11/21 06:06:36;;;;;;;12.10;2.65;;;;;;;5.53;100.00;97482.91;6249112;22;20022;-84
2022/11/21 06:09:03;;;;;;;11.88;2.72;;;;;;;5.58;100.00;97485.69;6246498;22;20008;-84
2022/11/21 06:11:28;;;;;;;9.77;2.90;;;;;;;5.56;100.00;97474.69;6275792;22;20015;-84
2022/11/21 06:13:54;;;;;;;8.73;3.80;;;;;;;5.57;100.00;97471.06;6275679;22;20012;-85
2022/11/21 06:16:20;;;;;;;14.75;3.50;;;;;;;5.54;100.00;97463.69;6275877;22;20338;-85
2022/11/21 06:18:48;;;;;;;13.23;2.97;;;;;;;5.62;100.00;97462.69;6275649;22;20082;-83
2022/11/21 06:21:22;;;;;;;9.80;3.22;;;;;;;5.68;100.00;97458.44;6276235;22;20007;-85
2022/11/21 06:23:52;;;;;;;15.05;3.20;;;;;;;5.69;100.00;97441.81;6272742;22;20111;-87
2022/11/21 06:26:21;;;;;;;13.15;3.42;;;;;;;5.80;100.00;97436.00;6276765;22;20011;-87
2022/11/21 06:28:47;;;;;;;14.18;3.83;;;;;;;5.86;100.00;97437.78;6248857;22;20012;-85
2022/11/21 06:31:17;;;;;;;17.00;5.65;;;;;;;6.02;100.00;97430.56;6275683;22;20016;-85
2022/11/21 06:33:44;;;;;;;12.43;3.78;;;;;;;6.10;100.00;97430.38;6275522;22;20498;-84
2022/11/21 06:36:14;;;;;;;15.68;4.53;;;;;;;6.17;100.00;97421.72;6248319;22;20103;-85
2022/11/21 06:38:40;;;;;;;16.60;5.50;;;;;;;6.14;100.00;97425.53;6247309;22;20024;-84
2022/11/21 06:41:13;;;;;;;13.82;5.20;;;;;;;6.37;100.00;97419.03;6274814;22;20008;-84
2022/11/21 06:43:39;;;;;;;11.70;4.85;;;;;;;6.42;100.00;97411.41;6248637;22;20099;-84
2022/11/21 06:46:05;;;;;;;15.50;4.50;;;;;;;6.55;100.00;97408.72;6275361;22;20431;-83
2022/11/21 06:48:32;;;;;;;15.00;4.97;;;;;;;6.58;100.00;97402.28;6275191;22;20086;-84
2022/11/21 06:51:06;;;;;;;11.15;4.35;;;;;;;6.65;100.00;97405.66;6274619;22;20043;-85
2022/11/21 06:53:33;;;;;;;17.17;4.82;;;;;;;6.58;100.00;97391.88;6274741;22;20082;-84
2022/11/21 06:55:59;;;;;;;12.73;5.50;;;;;;;6.67;100.00;97397.63;6223501;22;20014;-85
2022/11/21 06:58:25;;;;;;;13.50;6.10;;;;;;;6.67;100.00;97393.19;6275831;22;20036;-84
2022/11/21 07:00:50;;;;;;;13.38;5.20;;;;;;;6.54;100.00;97378.44;6276005;22;20442;-85
2022/11/21 07:03:17;;;;;;;19.67;6.85;;;;;;;6.71;100.00;97370.94;6249242;22;20069;-85
2022/11/21 07:05:43;;;;;;;15.50;7.05;;;;;;;6.61;100.00;97360.16;6274318;22;20035;-85
2022/11/21 07:08:09;;;;;;;19.10;7.35;;;;;;;6.62;100.00;97353.16;6275178;22;20018;-85
2022/11/21 07:10:37;;;;;;;19.70;8.80;;;;;;;6.56;100.00;97344.34;6275787;22;20012;-87
2022/11/21 07:13:21;;;;;;;16.92;7.95;;;;;;;6.65;100.00;97353.50;6250138;22;20019;-88
2022/11/21 07:15:47;;;;;;;;;;;;;;;6.79;100.00;97349.03;6223766;22;20018;-84
2022/11/21 07:18:13;;;;;;;19.27;8.43;;;;;;;6.69;100.00;97344.28;6247365;22;20245;-86
2022/11/21 07:20:40;;;;;;;21.35;9.30;;;;;;;6.76;100.00;97343.44;6274916;22;20633;-85
2022/11/21 07:23:07;;;;;;;25.17;10.43;;;;;;;6.77;100.00;97337.19;6277412;22;20454;-88
2022/11/21 07:25:33;;;;;;;19.90;9.70;;;;;;;6.85;100.00;97336.91;6225143;22;20046;-88
2022/11/21 07:28:00;;;;;;;28.45;11.43;;;;;;;6.80;100.00;97323.72;6250895;22;20007;-88
2022/11/21 07:30:26;;;;;;;24.10;9.88;;;;;;;6.91;100.00;97328.28;6251493;22;20086;-89
2022/11/21 07:32:57;;;;;;;25.25;9.20;;;;;;;6.92;100.00;97322.03;6279840;22;20015;-89
2022/11/21 07:35:23;;;;;;;28.27;8.93;;;;;;;6.80;100.00;97319.31;6278328;22;20008;-90
2022/11/21 07:37:49;;;;;;;21.77;9.95;;;;;;;6.99;100.00;97308.94;6278609;22;20018;-87
2022/11/21 07:40:14;;;;;;;23.95;9.77;;;;;;;7.05;100.00;97302.88;6250997;22;20003;-87
2022/11/21 07:42:40;;;;;;;24.63;8.95;;;;;;;7.03;100.00;97304.06;6276843;22;20070;-87
2022/11/21 07:45:07;;;;;;;28.27;9.70;;;;;;;7.13;100.00;97301.78;6274526;22;20058;-87
2022/11/21 07:47:32;;;;;;;22.42;9.88;;;;;;;7.13;100.00;97286.13;6247669;22;20007;-87
2022/11/21 07:49:58;;;;;;;25.42;9.65;;;;;;;7.16;100.00;97285.69;6274344;22;20015;-88
2022/11/21 07:52:24;;;;;;;29.30;11.68;;;;;;;7.15;100.00;97284.09;6275237;22;20091;-88
2022/11/21 07:54:50;;;;;;;31.75;11.77;;;;;;;7.05;100.00;97289.00;6275334;22;20018;-87
2022/11/21 07:57:15;;;;;;;26.95;11.10;;;;;;;7.21;100.00;97283.22;6274235;22;20011;-83
2022/11/21 07:59:41;;;;;;;24.23;10.18;;;;;;;7.32;100.00;97289.56;6244234;22;20434;-82
2022/11/21 08:02:17;;;;;;;25.60;10.60;;;;;;;7.21;100.00;97285.84;6271932;22;20039;-85
2022/11/21 08:04:43;;;;;;;18.75;8.80;;;;;;;7.28;100.00;97278.78;6274636;22;20327;-86
2022/11/21 08:07:09;;;;;;;22.95;9.57;;;;;;;7.40;100.00;97271.00;6273861;22;20058;-86
2022/11/21 08:09:35;;;;;;;24.95;10.27;;;;;;;7.41;100.00;97261.34;6273964;22;20069;-82
2022/11/21 08:12:00;;;;;;;22.17;10.48;;;;;;;7.36;100.00;97258.59;6271333;22;20015;-83
2022/11/21 08:14:26;;;;;;;21.13;9.45;;;;;;;7.39;100.00;97243.31;6245479;22;20007;-85
2022/11/21 08:16:52;;;;;;;25.63;9.93;;;;;;;7.50;100.00;97244.41;6274408;22;20093;-84
2022/11/21 08:19:18;;;;;;;23.35;10.00;;;;;;;7.57;100.00;97239.88;6246985;22;20007;-85
2022/11/21 08:21:43;;;;;;;27.70;10.82;;;;;;;7.62;100.00;97235.81;6274560;22;20012;-85
2022/11/21 08:24:13;;;;;;;25.38;10.90;;;;;;;7.69;100.00;97239.16;6274286;22;20331;-84
2022/11/21 08:26:39;;;;;;;30.92;10.98;;;;;;;7.57;100.00;97228.66;6274081;22;20015;-82
2022/11/21 08:29:05;;;;;;;27.13;9.90;;;;;;;7.67;100.00;97238.59;6273323;22;20070;-84
2022/11/21 08:31:31;;;;;;;28.05;10.10;;;;;;;7.80;100.00;97237.59;6275606;22;20087;-84
2022/11/21 08:33:57;;;;;;;33.42;11.35;;;;;;;7.87;100.00;97212.19;6276426;22;20034;-84
2022/11/21 08:36:23;;;;;;;28.17;12.52;;;;;;;7.94;100.00;97212.09;6276605;22;20050;-85
2022/11/21 08:38:48;;;;;;;18.63;9.25;;;;;;;7.90;100.00;97218.78;6275114;22;20011;-87
2022/11/21 08:43:58;;;;;;;26.42;14.48;;;;;;;7.88;100.00;97216.38;6247517;22;20008;-86
2022/11/21 08:46:27;;;;;;;28.58;12.73;;;;;;;7.90;100.00;97208.34;6274357;22;20468;-86
2022/11/21 08:48:55;;;;;;;26.13;13.15;;;;;;;8.06;100.00;97210.31;6274366;22;20011;-86
2022/11/21 08:51:21;;;;;;;22.13;12.15;;;;;;;8.06;100.00;97210.31;6247219;22;20069;-86
2022/11/21 08:53:47;;;;;;;29.10;14.77;;;;;;;8.05;100.00;97208.72;6274202;22;20035;-86
2022/11/21 08:56:12;;;;;;;31.23;12.32;;;;;;;8.03;100.00;97204.75;6247435;22;20016;-87
2022/11/21 08:58:44;;;;;;;27.63;12.63;;;;;;;7.79;100.00;97195.00;6248555;22;20022;-85
2022/11/21 09:01:10;;;;;;;27.70;11.15;;;;;;;7.85;100.00;97199.34;6275990;22;20438;-83
2022/11/21 09:03:35;;;;;;;21.02;8.98;;;;;;;8.09;100.00;97194.19;6274032;22;20050;-83
2022/11/21 09:06:01;;;;;;;20.15;9.48;;;;;;;7.96;100.00;97182.13;6275737;22;20091;-84
2022/11/21 09:08:28;;;;;;;17.45;8.88;;;;;;;8.09;100.00;97175.91;6275827;22;20076;-84
2022/11/21 09:10:54;;;;;;;16.77;9.05;;;;;;;8.10;100.00;97177.50;6275585;22;20023;-83
2022/11/21 09:13:19;;;;;;;25.00;9.98;;;;;;;8.18;100.00;97173.75;6275887;22;20011;-84
2022/11/21 09:18:29;;;;;;;18.95;8.75;;;;;;;8.24;100.00;97148.53;6275252;22;20008;-85
2022/11/21 09:20:55;;;;;;;22.48;10.93;;;;;;;8.27;100.00;97153.31;6275453;22;20015;-84
2022/11/21 09:23:23;;;;;;;24.38;10.88;;;;;;;8.33;100.00;97146.38;6275424;22;20044;-85
2022/11/21 09:25:49;;;;;;;22.15;10.93;;;;;;;8.33;100.00;97141.16;6245945;22;20011;-83
2022/11/21 09:28:14;;;;;;;21.73;10.38;;;;;;;8.31;100.00;97138.78;6274414;22;20491;-83
2022/11/21 09:30:41;;;;;;;29.88;11.48;;;;;;;8.28;100.00;97126.16;6274086;22;20034;-86
2022/11/21 09:33:10;;;;;;;15.63;8.60;;;;;;;8.41;100.00;97122.53;6274408;22;20354;-86
2022/11/21 09:35:36;;;;;;;19.38;9.30;;;;;;;8.33;100.00;97117.63;6275518;22;20019;-86
2022/11/21 09:38:02;;;;;;;16.55;7.82;;;;;;;8.43;100.00;97113.41;6248800;22;20007;-87
2022/11/21 09:40:30;;;;;;;17.70;9.02;;;;;;;8.40;100.00;97100.78;6275660;22;20455;-88
2022/11/21 09:43:05;;;;;;;18.88;9.35;;;;;;;8.60;100.00;97102.28;6275847;22;20018;-87
2022/11/21 09:45:40;;;;;;;20.30;8.57;;;;;;;8.61;100.00;97103.88;6274938;22;20410;-87
2022/11/21 09:48:23;;;;;;;21.20;8.85;;;;;;;8.66;100.00;97093.53;6248898;22;20012;-86
2022/11/21 09:50:54;;;;;;;18.48;7.18;;;;;;;8.76;100.00;97079.06;6275478;22;20011;-87
2022/11/21 09:53:24;;;;;;;19.15;7.75;;;;;;;8.78;100.00;97064.75;6275566;22;20500;-87
2022/11/21 09:56:20;;;;;;;15.07;7.85;;;;;;;8.72;100.00;97065.66;6275656;22;20046;-87
2022/11/21 09:59:10;;;;;;;15.93;8.32;;;;;;;8.89;100.00;97070.97;6243341;22;20295;-88
2022/11/21 10:01:36;;;;;;;18.70;8.20;;;;;;;8.76;100.00;97043.25;6275243;22;20004;-87
2022/11/21 10:04:02;;;;;;;17.20;7.20;;;;;;;8.68;100.00;97038.38;6274983;22;20042;-88
2022/11/21 10:06:43;;;;;;;18.67;7.28;;;;;;;8.74;100.00;97028.81;6247909;22;20011;-87
2022/11/21 10:09:46;;;;;;;21.95;9.10;;;;;;;8.78;100.00;97022.88;6275287;22;20030;-88
2022/11/21 10:12:38;;;;;;;19.60;8.02;;;;;;;8.75;100.00;97012.09;6228047;22;20019;-88
2022/11/21 10:15:25;;;;;;;19.33;8.27;;;;;;;8.85;100.00;97012.28;6274963;22;20012;-88
2022/11/21 10:18:12;;;;;;;20.40;8.82;;;;;;;8.90;100.00;97012.38;6274929;22;20426;-88
2022/11/21 10:21:16;;;;;;;25.80;11.18;;;;;;;9.02;100.00;96990.59;6275287;22;20008;-88
2022/11/21 10:24:00;;;;;;;17.88;10.18;;;;;;;9.07;100.00;96993.31;6119238;23;20024;-81
2022/11/21 10:26:41;;;;;;;15.75;8.93;;;;;;;9.11;100.00;96987.34;6244071;23;20012;-81
2022/11/21 10:29:37;;;;;;;28.67;15.77;;;;;;;9.09;100.00;96975.56;6243564;23;20012;-81
2022/11/21 10:32:26;;;;;;;20.27;10.90;;;;;;;9.09;100.00;96970.31;6244167;23;20035;-81
2022/11/21 10:34:56;;;;;;;32.05;11.50;;;;;;;9.09;100.00;96959.84;6242542;23;20424;-81
2022/11/21 10:37:48;;;;;;;21.48;10.10;;;;;;;9.07;100.00;96951.44;6243788;23;20008;-81
2022/11/21 10:40:49;;;;;;;22.90;9.80;;;;;;;9.08;100.00;96939.94;6186987;23;20019;-81
2022/11/21 10:46:24;;;;;;;14.45;7.18;;;;;;;9.05;100.00;96928.13;6243923;23;20012;-80
2022/11/21 10:49:01;;;;;;;14.05;7.60;;;;;;;9.06;100.00;96914.00;6243226;23;20439;-81
2022/11/21 10:52:04;;;;;;;16.40;8.23;;;;;;;9.04;100.00;96904.78;6243518;23;20091;-81
2022/11/21 10:54:32;;;;;;;25.38;12.95;;;;;;;8.88;100.00;96895.91;6242466;23;20222;-80
2022/11/21 10:57:14;;;;;;;26.58;14.20;;;;;;;8.65;100.00;96900.22;6243658;23;20086;-81
2022/11/21 10:59:40;;;;;;;25.05;14.02;;;;;;;8.69;100.00;96891.69;6243407;23;20039;-80
2022/11/21 11:02:12;;;;;;;30.70;14.05;;;;;;;8.83;100.00;96888.75;6244041;23;20379;-81
2022/11/21 11:04:38;;;;;;;28.60;13.35;;;;;;;8.63;100.00;96869.06;6242309;23;20023;-81
2022/11/21 11:07:23;;;;;;;21.83;12.48;;;;;;;8.78;100.00;96867.75;6243973;23;20012;-81
2022/11/21 11:09:51;;;;;;;26.75;12.93;;;;;;;8.71;100.00;96862.66;6243531;23;20043;-81
2022/11/21 11:13:32;;;;;;;26.85;15.50;;;;;;;8.85;100.00;96860.56;6243725;23;20442;-80
2022/11/21 11:15:16;;;;;;;27.70;14.98;;;;;;;8.92;100.00;96861.19;6242771;23;20125;-81
2022/11/21 11:17:42;;;;;;;27.55;12.95;;;;;;;8.76;100.00;96841.03;6243305;23;20035;-80
2022/11/21 11:20:31;;;;;;;28.75;15.95;;;;;;;8.78;100.00;96833.75;6243198;23;20327;-81
2022/11/21 11:22:56;;;;;;;41.38;21.92;;;;;;;8.80;100.00;96829.06;6246667;22;20012;-79
2022/11/21 11:25:22;;;;;;;26.58;12.70;;;;;;;8.73;100.00;96828.44;6274174;22;20007;-80
2022/11/21 11:27:48;;;;;;;14.30;8.10;;;;;;;8.68;100.00;96824.72;6273654;22;20504;-79
2022/11/21 11:30:16;;;;;;;30.75;9.30;;;;;;;8.81;100.00;96807.91;6274303;22;20011;-80
2022/11/21 11:32:41;;;;;;;14.90;7.82;;;;;;;8.76;100.00;96800.00;6274137;22;20433;-80
2022/11/21 11:35:31;;;;;;;38.47;18.73;;;;;;;8.92;100.00;96798.41;6274278;22;20003;-80
2022/11/21 11:38:03;;;;;;;36.65;19.75;;;;;;;8.96;100.00;96786.41;6247169;22;20039;-80
2022/11/21 11:40:32;;;;;;;29.40;15.40;;;;;;;9.03;100.00;96782.81;6248006;22;20057;-88
2022/11/21 11:49:21;;;;;;;16.13;9.68;;;;;;;8.97;100.00;96764.44;6275808;22;20075;-88
2022/11/21 11:51:54;;;;;;;20.45;10.43;;;;;;;9.16;100.00;96761.56;6249109;22;20011;-88